Time;durP1;ratioP1;P1;durP2;ratioP2;P2;SDS_P1;SDS_P2;PMS_P1;PMS_P2;Temp;Humidity;BMP_temperature;BMP_pressure;BME280_temperature;BME280_humidity;BME280_pressure;Samples;Min_cycle;Max_cycle;Signal;HPM_P1;HPM_P2
2021/08/04 00:02:21;;;;;;;8.77;3.60;;;;;;;20.77;66.73;98769.09;5056578;28;20106;-90
2021/08/04 00:04:48;;;;;;;9.90;4.20;;;;;;;20.85;66.67;98787.50;5060514;28;20044;-88
2021/08/04 00:07:14;;;;;;;9.45;3.78;;;;;;;20.89;66.95;98786.31;5057666;28;20045;-90
2021/08/04 00:09:40;;;;;;;8.40;3.35;;;;;;;20.75;66.78;98772.88;5054156;28;20091;-91
2021/08/04 00:12:06;;;;;;;15.00;3.42;;;;;;;20.79;66.81;98771.72;5058838;28;20090;-89
2021/08/04 00:14:32;;;;;;;11.40;3.53;;;;;;;20.77;67.39;98781.75;5059612;28;20037;-90
2021/08/04 00:16:58;;;;;;;6.80;3.88;;;;;;;20.72;67.20;98776.66;5059903;28;20452;-89
2021/08/04 00:19:23;;;;;;;7.30;3.60;;;;;;;20.64;67.52;98754.72;5063554;28;20139;-91
2021/08/04 00:21:51;;;;;;;7.03;3.55;;;;;;;20.77;67.51;98773.66;5065244;28;20029;-88
2021/08/04 00:24:17;;;;;;;8.10;3.60;;;;;;;20.71;67.63;98774.97;5062292;28;20044;-90
2021/08/04 00:26:43;;;;;;;10.13;3.92;;;;;;;20.59;67.95;98755.03;5061305;28;20043;-89
2021/08/04 00:29:09;;;;;;;9.60;3.70;;;;;;;20.56;68.30;98740.81;5063129;28;20036;-89
2021/08/04 00:31:35;;;;;;;11.88;3.67;;;;;;;20.62;68.22;98764.75;5055622;28;20050;-89
2021/08/04 00:34:01;;;;;;;10.77;4.05;;;;;;;20.57;68.34;98766.88;5064797;28;20356;-89
2021/08/04 00:36:27;;;;;;;8.55;3.88;;;;;;;20.39;68.75;98731.19;5061433;28;20127;-92
2021/08/04 00:38:54;;;;;;;9.88;4.10;;;;;;;20.52;68.72;98759.09;5064568;28;20464;-91
2021/08/04 00:41:20;;;;;;;11.98;3.80;;;;;;;20.49;68.78;98748.47;5062948;28;20523;-89
2021/08/04 00:43:45;;;;;;;7.35;3.50;;;;;;;20.51;68.73;98749.25;5063518;28;20057;-89
2021/08/04 00:46:13;;;;;;;7.75;3.55;;;;;;;20.53;69.21;98756.25;5062797;28;20025;-89
2021/08/04 00:48:39;;;;;;;8.55;4.07;;;;;;;20.56;69.08;98759.72;5063584;28;20040;-90
2021/08/04 00:51:05;;;;;;;7.53;3.72;;;;;;;20.49;69.46;98752.06;5065271;28;20036;-89
2021/08/04 00:53:31;;;;;;;10.50;3.97;;;;;;;20.43;69.63;98732.72;5058009;28;20033;-88
2021/08/04 00:55:59;;;;;;;11.07;4.43;;;;;;;20.49;69.94;98729.56;5059120;28;20041;-88
2021/08/04 00:58:33;;;;;;;6.10;3.30;;;;;;;20.52;69.39;98745.59;5060666;28;20376;-91
2021/08/04 01:01:03;;;;;;;10.13;3.95;;;;;;;20.47;70.16;98748.59;5060596;28;20165;-89
2021/08/04 01:03:35;;;;;;;12.85;3.70;;;;;;;20.49;69.85;98749.38;5065245;28;20048;-89
2021/08/04 01:06:05;;;;;;;9.68;3.92;;;;;;;20.43;69.83;98730.88;5064970;28;20660;-89
2021/08/04 01:08:31;;;;;;;10.57;3.67;;;;;;;;;;5062156;28;20402;-89
2021/08/04 01:11:03;;;;;;;9.07;3.40;;;;;;;20.55;69.60;98739.97;5061681;28;20090;-89
2021/08/04 01:13:31;;;;;;;9.23;4.60;;;;;;;20.57;69.63;98739.88;5063860;28;20015;-88
2021/08/04 01:16:10;;;;;;;7.50;3.50;;;;;;;20.46;69.54;98738.75;5060084;28;20041;-88
2021/08/04 01:18:39;;;;;;;11.88;3.50;;;;;;;20.41;69.81;98734.66;5061852;28;20051;-90
2021/08/04 01:21:08;;;;;;;7.00;3.67;;;;;;;20.39;69.72;98725.78;5061481;28;20055;-88
2021/08/04 01:23:42;;;;;;;8.30;3.92;;;;;;;20.27;69.86;98714.81;5062401;28;20040;-89
2021/08/04 01:26:22;;;;;;;13.52;4.47;;;;;;;20.21;69.91;98709.88;5059824;28;20120;-90
2021/08/04 01:28:51;;;;;;;8.63;3.90;;;;;;;20.20;70.42;98721.63;5055971;28;20041;-90
2021/08/04 01:31:21;;;;;;;7.70;3.92;;;;;;;20.12;70.60;98713.16;5057068;28;20041;-89
2021/08/04 01:33:49;;;;;;;9.70;3.88;;;;;;;20.04;70.61;98719.09;5062779;28;20039;-91
2021/08/04 01:36:16;;;;;;;10.70;3.95;;;;;;;19.95;70.88;98706.22;5059324;28;20041;-91
2021/08/04 01:38:43;;;;;;;11.32;4.93;;;;;;;19.87;70.84;98697.75;5062420;28;20025;-90
2021/08/04 01:41:10;;;;;;;7.15;3.70;;;;;;;19.88;70.95;98707.56;5057494;28;20041;-89
2021/08/04 01:43:39;;;;;;;7.78;3.63;;;;;;;19.74;71.15;98695.00;5053638;28;20044;-89
2021/08/04 01:46:06;;;;;;;;;;;;;;;19.67;72.06;98724.19;5056954;28;20032;-90
2021/08/04 01:48:32;;;;;;;10.27;3.35;;;;;;;19.57;72.43;98706.84;5063690;28;19920;-88
2021/08/04 01:51:01;;;;;;;9.48;4.22;;;;;;;19.42;72.67;98692.53;5063115;28;20037;-91
2021/08/04 01:53:29;;;;;;;11.15;3.97;;;;;;;19.44;72.67;98706.78;5063889;28;20398;-91
2021/08/04 01:55:55;;;;;;;8.47;3.87;;;;;;;19.43;72.79;98709.56;5064848;28;20036;-89
2021/08/04 01:58:21;;;;;;;8.82;4.53;;;;;;;19.24;73.36;98689.19;5060261;28;20509;-88
2021/08/04 02:00:48;;;;;;;9.50;4.22;;;;;;;19.29;73.26;98702.38;5056986;28;20037;-88
2021/08/04 02:03:14;;;;;;;9.20;4.13;;;;;;;19.20;73.70;98692.19;5057817;28;20035;-88
2021/08/04 02:05:40;;;;;;;9.32;4.00;;;;;;;19.13;73.88;98689.00;5061696;28;20507;-89
2021/08/04 02:08:16;;;;;;;12.32;3.88;;;;;;;19.18;73.96;98694.97;5065838;28;20047;-89
2021/08/04 02:10:52;;;;;;;7.28;3.88;;;;;;;19.03;73.78;98671.69;5064397;28;20044;-88
2021/08/04 02:13:43;;;;;;;10.55;4.15;;;;;;;19.06;74.61;98688.53;5060005;28;20036;-89
2021/08/04 02:16:17;;;;;;;10.88;4.18;;;;;;;19.00;74.84;98690.75;5055409;28;20477;-88
2021/08/04 02:18:48;;;;;;;10.30;4.25;;;;;;;18.84;74.73;98675.53;5060513;28;20375;-90
2021/08/04 02:21:20;;;;;;;11.70;3.88;;;;;;;18.86;75.01;98667.34;5059228;28;20048;-89
2021/08/04 02:23:49;;;;;;;7.95;3.70;;;;;;;18.86;75.02;98670.03;5061975;28;20041;-87
2021/08/04 02:26:16;;;;;;;7.00;3.80;;;;;;;18.76;75.74;98666.16;5062286;28;20033;-88
2021/08/04 02:28:45;;;;;;;7.43;4.07;;;;;;;18.63;76.20;98666.94;5062066;28;20029;-90
2021/08/04 02:31:15;;;;;;;9.57;3.97;;;;;;;18.76;76.15;98679.63;5058098;28;20122;-87
2021/08/04 02:33:42;;;;;;;9.68;3.88;;;;;;;18.69;75.82;98662.97;5058389;28;20039;-89
2021/08/04 02:36:08;;;;;;;8.40;4.00;;;;;;;18.79;75.82;98684.88;5059219;28;20064;-90
2021/08/04 02:38:34;;;;;;;11.32;4.18;;;;;;;18.79;75.77;98680.34;5064690;28;20060;-89
2021/08/04 02:41:01;;;;;;;10.43;4.80;;;;;;;18.85;75.57;98684.50;5059876;28;20049;-89
2021/08/04 02:43:28;;;;;;;7.88;4.10;;;;;;;18.80;75.28;98675.81;5062068;28;20032;-91
2021/08/04 02:45:55;;;;;;;9.30;4.20;;;;;;;18.79;75.30;98683.03;5057455;28;20510;-89
2021/08/04 02:48:24;;;;;;;11.25;3.80;;;;;;;18.80;75.56;98667.72;5061799;28;20128;-87
2021/08/04 02:50:52;;;;;;;8.07;3.70;;;;;;;18.77;74.87;98663.38;5059420;28;20434;-88
2021/08/04 02:53:21;;;;;;;7.63;3.90;;;;;;;18.79;74.79;98664.19;5064068;28;20087;-89
2021/08/04 02:55:49;;;;;;;8.73;4.20;;;;;;;18.70;74.23;98647.69;5061384;28;20131;-87
2021/08/04 02:58:15;;;;;;;;;;;;;;;18.80;74.45;98665.94;5064081;28;20449;-88
2021/08/04 03:00:41;;;;;;;11.57;3.70;;;;;;;18.67;75.53;98655.00;5063514;28;19920;-88
2021/08/04 03:03:07;;;;;;;11.90;3.92;;;;;;;18.74;75.42;98663.56;5062583;28;20036;-90
2021/08/04 03:05:34;;;;;;;11.35;4.40;;;;;;;18.50;76.72;98662.38;5064350;28;20537;-88
2021/08/04 03:08:00;;;;;;;9.55;3.63;;;;;;;18.38;77.03;98654.09;5061490;28;20471;-90
2021/08/04 03:10:26;;;;;;;7.75;4.15;;;;;;;18.43;76.95;98643.03;5062839;28;20139;-87
2021/08/04 03:12:52;;;;;;;8.27;3.60;;;;;;;18.56;76.65;98651.22;5065752;28;20045;-88
2021/08/04 03:15:18;;;;;;;10.32;4.00;;;;;;;18.50;76.65;98640.84;5058761;28;20394;-90
2021/08/04 03:17:44;;;;;;;7.10;3.88;;;;;;;18.42;76.39;98635.94;5063442;28;20045;-87
2021/08/04 03:20:11;;;;;;;8.63;3.80;;;;;;;18.38;76.55;98631.69;5061666;28;20037;-90
2021/08/04 03:22:42;;;;;;;11.75;3.90;;;;;;;18.43;77.23;98656.50;5062258;28;20061;-89
2021/08/04 03:25:09;;;;;;;8.68;4.13;;;;;;;18.39;77.61;98653.16;5062797;28;20037;-90
2021/08/04 03:27:35;;;;;;;8.48;4.10;;;;;;;18.35;77.64;98648.06;5061209;28;20394;-90
2021/08/04 03:30:00;;;;;;;6.97;3.95;;;;;;;18.34;77.14;98649.84;5058466;28;20037;-88
2021/08/04 03:32:26;;;;;;;11.77;4.20;;;;;;;18.30;77.25;98636.69;5060678;28;20379;-88
2021/08/04 03:34:52;;;;;;;8.30;4.07;;;;;;;18.39;76.87;98653.16;5062198;28;20033;-89
2021/08/04 03:37:18;;;;;;;6.90;3.72;;;;;;;18.32;76.87;98641.00;5063937;28;20127;-89
2021/08/04 03:39:45;;;;;;;10.40;4.43;;;;;;;18.22;78.11;98639.84;5062573;28;20053;-89
2021/08/04 03:42:11;;;;;;;10.23;4.03;;;;;;;18.26;78.48;98655.72;5063363;28;20041;-88
2021/08/04 03:44:37;;;;;;;11.75;4.45;;;;;;;18.34;77.64;98659.75;5063870;28;20516;-88
2021/08/04 03:47:03;;;;;;;12.77;4.72;;;;;;;18.32;77.57;98645.53;5057696;28;20045;-89
2021/08/04 03:49:29;;;;;;;9.65;4.40;;;;;;;18.37;77.00;98647.00;5059035;28;20066;-90
2021/08/04 03:51:55;;;;;;;11.13;4.32;;;;;;;18.32;76.75;98635.63;5061401;28;20036;-88
2021/08/04 03:54:23;;;;;;;9.55;4.32;;;;;;;18.45;76.71;98649.19;5066633;28;20100;-90
2021/08/04 03:56:50;;;;;;;8.45;3.67;;;;;;;18.32;77.02;98630.22;5065607;28;20490;-89
2021/08/04 03:59:15;;;;;;;10.25;4.20;;;;;;;18.29;76.65;98624.19;5064306;28;20044;-89
2021/08/04 04:01:41;;;;;;;10.80;4.40;;;;;;;18.37;76.53;98643.44;5063744;28;20059;-91
2021/08/04 04:04:07;;;;;;;10.57;4.25;;;;;;;18.22;76.29;98621.00;5060669;28;20444;-91
2021/08/04 04:06:35;;;;;;;7.50;4.65;;;;;;;18.30;74.52;98634.84;5060900;28;20044;-91
2021/08/04 04:09:05;;;;;;;8.48;3.80;;;;;;;18.16;73.83;98622.22;5066970;28;20060;-90
2021/08/04 04:11:36;;;;;;;10.85;4.68;;;;;;;18.14;73.68;98625.97;5062786;28;20037;-90
2021/08/04 04:14:03;;;;;;;7.38;4.00;;;;;;;18.09;73.48;98631.66;5064563;28;20037;-91
2021/08/04 04:16:29;;;;;;;13.52;3.75;;;;;;;18.08;72.85;98624.50;5056584;28;20120;-93
2021/08/04 04:18:55;;;;;;;6.82;3.40;;;;;;;18.05;73.43;98624.72;5060679;28;20064;-90
2021/08/04 04:21:20;;;;;;;8.00;3.72;;;;;;;17.95;72.71;98612.75;5067416;28;20041;-91
2021/08/04 04:23:46;;;;;;;10.40;4.22;;;;;;;17.88;74.31;98614.09;5066098;28;20043;-90
2021/08/04 04:26:12;;;;;;;8.02;4.22;;;;;;;17.85;74.81;98601.69;5067486;28;20044;-89
2021/08/04 04:28:38;;;;;;;8.35;3.85;;;;;;;17.83;74.62;98596.41;5066923;28;20048;-90
2021/08/04 04:31:05;;;;;;;7.97;3.92;;;;;;;18.01;74.92;98625.84;5064868;28;20060;-90
2021/08/04 04:33:31;;;;;;;8.15;3.70;;;;;;;18.01;75.28;98612.41;5065738;28;20037;-89
2021/08/04 04:36:00;;;;;;;10.80;3.92;;;;;;;18.04;74.87;98613.09;5062750;28;20068;-89
2021/08/04 04:38:26;;;;;;;8.80;3.80;;;;;;;18.25;75.30;98618.13;5061855;28;20075;-90
2021/08/04 04:40:59;;;;;;;6.68;3.45;;;;;;;18.35;74.64;98622.00;5064855;28;20494;-91
2021/08/04 04:43:28;;;;;;;7.43;4.00;;;;;;;18.38;72.35;98610.16;5066145;28;20521;-91
2021/08/04 04:48:58;;;;;;;7.50;3.90;;;;;;;18.68;69.98;98631.63;5130715;27;20161;-90
2021/08/04 04:51:27;;;;;;;7.35;4.03;;;;;;;18.79;70.21;98628.28;5132617;28;20088;-90
2021/08/04 04:53:55;;;;;;;5.63;3.65;;;;;;;18.89;67.76;98624.06;5132546;27;20496;-90
2021/08/04 04:56:23;;;;;;;8.32;4.32;;;;;;;19.00;66.81;98629.63;5132634;27;20046;-88
2021/08/04 04:58:51;;;;;;;8.10;3.60;;;;;;;19.01;66.22;98627.78;5129443;28;20034;-92
2021/08/04 05:01:22;;;;;;;10.27;4.13;;;;;;;19.01;66.24;98634.03;5130183;28;20052;-91
2021/08/04 05:03:53;;;;;;;7.03;3.50;;;;;;;18.97;66.66;98629.81;5132444;27;20069;-90
2021/08/04 05:06:23;;;;;;;7.05;3.55;;;;;;;19.06;68.58;98637.34;5131927;28;20035;-90
2021/08/04 05:08:53;;;;;;;13.77;3.92;;;;;;;19.33;70.24;98639.19;5128925;28;20031;-92
2021/08/04 05:11:19;;;;;;;8.55;3.78;;;;;;;19.51;69.96;98645.22;5129405;28;20442;-89
2021/08/04 05:13:45;;;;;;;8.70;3.90;;;;;;;19.44;70.03;98623.19;5132575;28;20059;-92
2021/08/04 05:16:11;;;;;;;7.35;3.72;;;;;;;19.66;69.51;98646.91;5129864;27;20047;-90
2021/08/04 05:18:36;;;;;;;8.98;3.70;;;;;;;19.64;69.42;98621.84;5132959;28;20031;-90
2021/08/04 05:21:02;;;;;;;6.72;3.72;;;;;;;19.71;69.53;98625.03;5132365;27;20043;-91
2021/08/04 05:23:29;;;;;;;7.43;3.72;;;;;;;19.79;69.89;98651.53;5132277;27;20031;-91
2021/08/04 05:25:55;;;;;;;9.20;3.97;;;;;;;19.74;69.68;98626.69;5131751;27;20035;-90
2021/08/04 05:28:21;;;;;;;7.10;3.90;;;;;;;19.73;70.39;98646.53;5131387;28;20503;-91
2021/08/04 05:30:47;;;;;;;9.50;3.63;;;;;;;19.73;70.09;98625.81;5129749;27;20031;-90
2021/08/04 05:33:13;;;;;;;8.25;3.47;;;;;;;19.64;70.36;98656.06;5131626;28;20035;-91
2021/08/04 05:35:39;;;;;;;13.27;4.32;;;;;;;19.42;71.17;98643.13;5131563;27;20070;-89
2021/08/04 05:38:07;;;;;;;8.07;4.13;;;;;;;19.45;71.18;98657.28;5131337;27;20058;-90
2021/08/04 05:40:34;;;;;;;8.10;3.95;;;;;;;19.60;70.74;98650.00;5131970;27;20090;-91
2021/08/04 05:43:00;;;;;;;10.73;4.78;;;;;;;19.75;70.81;98656.25;5131972;27;20035;-90
2021/08/04 05:45:30;;;;;;;11.85;4.15;;;;;;;19.94;68.35;98655.88;5129552;27;20047;-89
2021/08/04 05:47:59;;;;;;;9.13;5.05;;;;;;;19.95;64.38;98652.25;5130646;28;20100;-92
2021/08/04 05:50:25;;;;;;;9.93;4.10;;;;;;;19.93;64.20;98640.69;5130584;28;20496;-91
2021/08/04 05:52:51;;;;;;;12.13;4.10;;;;;;;20.10;63.78;98648.50;5132392;28;20046;-89
2021/08/04 05:55:17;;;;;;;7.20;4.18;;;;;;;20.35;63.23;98644.09;5132522;27;20027;-90
2021/08/04 05:57:44;;;;;;;10.98;4.95;;;;;;;20.62;61.57;98646.72;5132515;28;20046;-90
2021/08/04 06:00:10;;;;;;;14.90;5.43;;;;;;;20.81;61.42;98645.44;5114367;27;20039;-91
2021/08/04 06:02:36;;;;;;;14.05;5.28;;;;;;;20.82;61.73;98639.94;5116749;28;20126;-90
2021/08/04 06:05:03;;;;;;;14.55;6.97;;;;;;;20.81;61.13;98640.03;5117502;28;20126;-90
2021/08/04 06:07:29;;;;;;;10.35;5.35;;;;;;;20.80;63.60;98628.38;5128558;28;20039;-91
2021/08/04 06:09:57;;;;;;;8.07;4.07;;;;;;;20.77;64.19;98625.00;5120378;28;20082;-90
2021/08/04 06:12:23;;;;;;;9.20;4.13;;;;;;;20.72;63.21;98638.84;5114496;28;20035;-89
2021/08/04 06:14:51;;;;;;;15.75;3.83;;;;;;;20.64;62.97;98642.09;5113603;28;20063;-90
2021/08/04 06:17:17;;;;;;;11.65;4.22;;;;;;;20.80;62.44;98641.88;5115455;28;20039;-89
2021/08/04 06:19:42;;;;;;;10.77;3.63;;;;;;;21.12;60.51;98631.47;5115081;28;20046;-89
2021/08/04 06:22:08;;;;;;;13.10;4.85;;;;;;;21.71;57.13;98647.00;5114837;28;20048;-89
2021/08/04 06:24:34;;;;;;;12.63;5.25;;;;;;;21.91;55.50;98620.28;5115297;28;20088;-88
2021/08/04 06:27:01;;;;;;;13.80;4.25;;;;;;;21.93;56.20;98639.97;5114938;28;20511;-88
2021/08/04 06:29:27;;;;;;;10.55;4.50;;;;;;;22.07;55.37;98638.91;5114898;28;20126;-89
2021/08/04 06:31:54;;;;;;;10.85;4.50;;;;;;;21.97;55.39;98630.63;5111756;28;20119;-89
2021/08/04 06:34:20;;;;;;;16.40;4.18;;;;;;;22.33;53.88;98653.19;5114882;28;20119;-88
2021/08/04 06:36:45;;;;;;;9.65;3.63;;;;;;;22.45;52.25;98625.16;5114445;28;20122;-90
2021/08/04 06:39:11;;;;;;;10.27;3.90;;;;;;;22.20;52.99;98636.97;5114517;28;20047;-90
2021/08/04 06:41:37;;;;;;;7.07;3.53;;;;;;;22.23;53.50;98650.34;5114809;28;20554;-89
2021/08/04 06:44:03;;;;;;;8.07;3.75;;;;;;;22.71;52.32;98655.63;5116289;28;20554;-90
2021/08/04 06:46:33;;;;;;;14.70;3.90;;;;;;;23.37;50.63;98657.63;5114174;28;20036;-90
2021/08/04 06:49:01;;;;;;;7.32;3.60;;;;;;;23.45;49.48;98643.44;5116186;28;20043;-90
2021/08/04 06:51:27;;;;;;;6.85;3.63;;;;;;;23.21;49.71;98659.88;5115970;28;20055;-89
2021/08/04 06:53:54;;;;;;;7.93;3.80;;;;;;;22.96;50.75;98651.81;5116328;28;20108;-89
2021/08/04 06:56:19;;;;;;;6.97;3.60;;;;;;;22.98;50.66;98648.97;5116348;28;20404;-89
2021/08/04 06:58:45;;;;;;;6.95;3.83;;;;;;;23.01;49.99;98647.91;5115964;28;20050;-89
2021/08/04 07:01:11;;;;;;;9.23;3.92;;;;;;;23.07;50.56;98644.69;5112736;28;20833;-89
2021/08/04 07:03:38;;;;;;;11.07;4.03;;;;;;;23.08;50.29;98647.28;5113437;28;20431;-89
2021/08/04 07:06:08;;;;;;;7.45;4.03;;;;;;;23.04;50.22;98653.09;5113674;28;20102;-88
2021/08/04 07:08:34;;;;;;;10.77;4.15;;;;;;;22.82;51.22;98653.91;5113745;28;20036;-89
2021/08/04 07:11:00;;;;;;;10.82;3.97;;;;;;;22.68;51.83;98647.72;5112741;28;20043;-88
2021/08/04 07:13:26;;;;;;;8.13;4.05;;;;;;;22.66;51.91;98637.97;5115883;28;20062;-89
2021/08/04 07:15:52;;;;;;;11.57;4.03;;;;;;;23.01;51.16;98648.78;5112764;28;20043;-89
2021/08/04 07:18:17;;;;;;;9.63;3.72;;;;;;;23.40;50.36;98654.69;5115518;28;20032;-89
2021/08/04 07:20:43;;;;;;;9.82;3.88;;;;;;;23.69;49.96;98644.13;5114134;28;20036;-89
2021/08/04 07:23:10;;;;;;;7.07;3.53;;;;;;;23.94;49.63;98637.53;5113175;28;20080;-89
2021/08/04 07:25:36;;;;;;;11.48;3.83;;;;;;;24.10;48.84;98630.81;5113413;28;20493;-88
2021/08/04 07:28:03;;;;;;;10.63;3.95;;;;;;;24.36;48.94;98634.00;5113329;28;20032;-88
2021/08/04 07:30:29;;;;;;;8.05;3.85;;;;;;;24.31;48.73;98612.66;5110333;28;20167;-88
2021/08/04 07:32:55;;;;;;;7.47;3.88;;;;;;;24.52;48.88;98633.56;5113225;28;20044;-89
2021/08/04 07:35:21;;;;;;;8.55;3.60;;;;;;;24.69;48.14;98632.09;5115196;28;20039;-88
2021/08/04 07:37:47;;;;;;;8.15;3.75;;;;;;;24.57;48.99;98631.31;5114162;28;20053;-89
2021/08/04 07:40:17;;;;;;;7.47;3.35;;;;;;;24.25;50.00;98629.50;5114439;28;20070;-92
2021/08/04 07:42:43;;;;;;;9.00;4.28;;;;;;;24.61;51.16;98632.75;5113361;28;20039;-89
2021/08/04 07:45:10;;;;;;;13.75;5.00;;;;;;;24.45;52.19;98627.78;5111895;28;20043;-91
2021/08/04 07:47:36;;;;;;;10.27;4.95;;;;;;;24.57;51.37;98628.56;5115551;28;20048;-91
2021/08/04 07:50:02;;;;;;;14.45;5.20;;;;;;;24.52;51.94;98631.69;5112257;28;20048;-91
2021/08/04 07:52:28;;;;;;;13.00;4.72;;;;;;;24.51;51.20;98601.97;5113633;28;20058;-90
2021/08/04 07:54:54;;;;;;;11.10;3.88;;;;;;;24.86;50.31;98612.44;5113833;28;20044;-91
2021/08/04 07:57:21;;;;;;;13.05;4.53;;;;;;;24.22;51.40;98621.59;5111205;28;20035;-92
2021/08/04 07:59:47;;;;;;;10.32;3.72;;;;;;;24.69;51.09;98624.81;5105370;28;20047;-92
2021/08/04 08:02:13;;;;;;;14.75;4.22;;;;;;;24.94;49.52;98615.34;5113208;28;20043;-92
2021/08/04 08:04:39;;;;;;;12.63;4.38;;;;;;;25.24;49.06;98610.03;5112187;28;20043;-92
2021/08/04 08:07:05;;;;;;;12.98;4.78;;;;;;;24.90;49.47;98624.78;5113202;28;20216;-93
2021/08/04 08:09:31;;;;;;;11.63;4.38;;;;;;;24.40;49.32;98602.84;5112848;28;20036;-93
2021/08/04 08:12:00;;;;;;;11.75;3.97;;;;;;;24.07;51.66;98618.34;5113182;28;20035;-91
2021/08/04 08:14:29;;;;;;;8.73;3.67;;;;;;;24.14;50.43;98588.81;5111980;28;20048;-90
2021/08/04 08:16:55;;;;;;;10.27;4.07;;;;;;;23.91;51.70;98604.34;5110907;28;20028;-91
2021/08/04 08:19:21;;;;;;;11.90;3.97;;;;;;;24.06;50.62;98592.16;5115123;28;20038;-92
2021/08/04 08:21:47;;;;;;;9.27;3.90;;;;;;;24.21;50.76;98603.56;5113902;28;20036;-91
2021/08/04 08:24:13;;;;;;;10.27;4.30;;;;;;;24.37;50.44;98603.97;5114904;28;20028;-91
2021/08/04 08:26:39;;;;;;;10.60;4.55;;;;;;;24.31;49.51;98603.63;5110833;28;20052;-90
2021/08/04 08:29:05;;;;;;;12.95;4.60;;;;;;;24.16;50.51;98614.84;5112331;28;20480;-91
2021/08/04 08:31:33;;;;;;;11.02;4.60;;;;;;;24.31;50.20;98603.63;5110158;28;20039;-90
2021/08/04 08:36:53;;;;;;;7.80;3.33;;;;;;;24.63;47.46;98622.63;5084498;27;20374;-89
2021/08/04 08:39:19;;;;;;;7.93;3.45;;;;;;;24.78;46.93;98618.53;5084176;28;20045;-89
2021/08/04 08:41:45;;;;;;;7.53;3.45;;;;;;;25.06;46.27;98601.66;5084078;28;20517;-90
2021/08/04 08:44:11;;;;;;;8.50;3.58;;;;;;;24.92;46.50;98597.44;5084024;28;20028;-91
2021/08/04 08:46:38;;;;;;;9.65;3.78;;;;;;;24.95;45.12;98611.63;5084638;28;20127;-89
2021/08/04 08:49:04;;;;;;;10.63;3.58;;;;;;;25.13;45.40;98602.81;5079626;28;20040;-90
2021/08/04 08:51:31;;;;;;;11.90;3.53;;;;;;;25.45;44.67;98589.03;5082884;28;20055;-90
2021/08/04 08:53:59;;;;;;;12.05;3.50;;;;;;;25.62;42.30;98579.31;5089656;28;20035;-91
2021/08/04 08:56:25;;;;;;;10.98;3.75;;;;;;;25.12;44.25;98582.91;5086352;28;20119;-91
2021/08/04 08:58:52;;;;;;;14.45;5.18;;;;;;;25.51;43.84;98588.47;5088324;28;20406;-91
2021/08/04 09:01:30;;;;;;;14.38;3.60;;;;;;;26.10;43.92;98583.94;5086738;28;20033;-91
2021/08/04 09:04:00;;;;;;;10.17;3.87;;;;;;;26.05;42.65;98569.91;5088803;28;20036;-91
2021/08/04 09:06:56;;;;;;;12.43;3.67;;;;;;;26.73;41.64;98585.28;5085307;28;20044;-91
2021/08/04 09:09:25;;;;;;;10.60;3.55;;;;;;;27.14;41.37;98585.84;5087020;28;20452;-90
2021/08/04 09:11:52;;;;;;;7.55;3.45;;;;;;;26.69;40.27;98581.13;5084006;28;20497;-92
2021/08/04 09:14:29;;;;;;;7.67;3.60;;;;;;;26.46;40.98;98576.00;5086739;28;20516;-91
2021/08/04 09:17:13;;;;;;;7.93;3.95;;;;;;;26.32;40.78;98588.22;5084536;28;20359;-90
2021/08/04 09:19:41;;;;;;;6.68;3.70;;;;;;;26.69;39.78;98575.69;5089517;28;20040;-91
2021/08/04 09:22:12;;;;;;;7.65;3.70;;;;;;;27.49;38.13;98570.59;5089315;28;20040;-92
2021/08/04 09:24:59;;;;;;;7.72;3.55;;;;;;;27.84;35.04;98562.38;5089914;28;20581;-90
2021/08/04 09:27:46;;;;;;;8.25;3.80;;;;;;;27.99;35.18;98560.00;5085978;28;20492;-91
2021/08/04 09:30:14;;;;;;;5.75;3.20;;;;;;;28.43;33.77;98550.94;5080557;28;20759;-91
2021/08/04 09:32:40;;;;;;;6.35;3.92;;;;;;;27.87;34.22;98547.63;5084152;28;20402;-90
2021/08/04 09:35:11;;;;;;;7.68;3.35;;;;;;;27.38;33.93;98544.34;5083495;28;20053;-91
2021/08/04 09:37:39;;;;;;;12.02;3.60;;;;;;;27.60;34.43;98548.50;5083878;28;20055;-92
2021/08/04 09:40:09;;;;;;;11.07;3.67;;;;;;;27.76;33.75;98537.75;5087352;28;20150;-90
2021/08/04 09:42:48;;;;;;;7.95;3.75;;;;;;;28.47;32.88;98546.84;5085924;28;20052;-91
2021/08/04 09:45:15;;;;;;;7.70;3.35;;;;;;;28.57;32.76;98538.59;5082380;28;20399;-91
2021/08/04 09:48:03;;;;;;;8.40;3.63;;;;;;;28.39;32.62;98534.00;5074582;28;20044;-90
2021/08/04 09:50:47;;;;;;;7.18;3.65;;;;;;;27.90;34.22;98540.97;5071110;28;20070;-90
2021/08/04 09:53:21;;;;;;;8.63;3.72;;;;;;;28.17;34.42;98534.50;5072141;28;20052;-92
2021/08/04 09:56:19;;;;;;;6.82;3.17;;;;;;;28.73;33.18;98544.13;5069718;28;20036;-91
2021/08/04 09:58:46;;;;;;;7.38;3.22;;;;;;;28.94;31.96;98531.94;5013599;28;20046;-91
2021/08/04 10:01:14;;;;;;;6.43;3.60;;;;;;;29.06;31.38;98533.34;5010789;28;20045;-90
2021/08/04 10:04:02;;;;;;;8.30;3.60;;;;;;;28.82;31.48;98528.63;5012434;28;20073;-90
2021/08/04 10:06:27;;;;;;;10.87;4.07;;;;;;;29.67;30.67;98509.41;5015340;28;20096;-91
2021/08/04 10:08:53;;;;;;;6.95;3.20;;;;;;;30.41;29.79;98513.03;5011982;28;20030;-91
2021/08/04 10:11:22;;;;;;;7.95;3.50;;;;;;;30.79;29.76;98513.25;5012864;28;20063;-92
2021/08/04 10:13:48;;;;;;;5.43;3.00;;;;;;;31.13;28.98;98492.91;5013995;28;20494;-91
2021/08/04 10:16:14;;;;;;;6.75;3.45;;;;;;;30.72;28.06;98506.78;5011260;28;20068;-91
2021/08/04 10:18:40;;;;;;;6.78;3.20;;;;;;;30.76;29.36;98499.03;5011821;28;20073;-91
2021/08/04 10:21:11;;;;;;;7.30;3.53;;;;;;;30.72;29.19;98495.78;5013010;28;20045;-92
2021/08/04 10:23:38;;;;;;;6.35;4.05;;;;;;;30.42;29.08;98492.78;5016212;28;20046;-91
2021/08/04 10:26:05;;;;;;;6.97;3.33;;;;;;;30.19;28.69;98500.00;5013194;28;20037;-91
2021/08/04 10:28:33;;;;;;;6.57;3.70;;;;;;;30.71;28.59;98496.84;5011985;28;20045;-92
2021/08/04 10:30:59;;;;;;;7.68;4.03;;;;;;;30.46;28.54;98496.88;5011607;28;20562;-91
2021/08/04 10:33:25;;;;;;;6.68;4.13;;;;;;;29.85;29.95;98498.31;5059506;28;20056;-92
2021/08/04 10:35:52;;;;;;;6.57;3.90;;;;;;;29.73;29.77;98488.69;5076070;28;20110;-91
2021/08/04 10:38:20;;;;;;;9.80;4.40;;;;;;;29.75;30.99;98490.25;5062890;28;20044;-94
2021/08/04 10:40:46;;;;;;;6.20;3.92;;;;;;;29.81;30.97;98464.03;5070737;28;20331;-93
2021/08/04 10:43:38;;;;;;;8.48;4.22;;;;;;;30.09;30.42;98481.00;5066069;28;20068;-91
2021/08/04 10:46:36;;;;;;;6.18;3.67;;;;;;;30.57;29.30;98478.34;5079962;28;20541;-92
2021/08/04 10:49:20;;;;;;;8.15;3.40;;;;;;;31.01;28.25;98473.22;5078243;28;20040;-93
2021/08/04 10:52:21;;;;;;;8.45;4.13;;;;;;;31.11;28.07;98468.34;5068297;28;20041;-92
2021/08/04 10:55:09;;;;;;;6.03;3.70;;;;;;;31.62;27.10;98465.16;5070053;28;20430;-93
2021/08/04 10:58:06;;;;;;;7.82;3.42;;;;;;;31.51;26.82;98452.69;5072052;28;20063;-92
2021/08/04 11:00:35;;;;;;;6.70;3.60;;;;;;;31.08;27.64;98454.16;5067666;28;20064;-93
2021/08/04 11:03:38;;;;;;;7.68;3.75;;;;;;;31.60;26.20;98450.72;5066501;28;20068;-92
2021/08/04 11:09:35;;;;;;;8.10;3.28;;;;;;;31.91;25.49;98427.78;5133720;27;20702;-93
2021/08/04 11:12:02;;;;;;;5.88;3.25;;;;;;;31.51;25.29;98435.31;5133432;27;20446;-92
2021/08/04 11:14:40;;;;;;;10.63;3.60;;;;;;;31.77;24.86;98428.59;5132931;27;20035;-92
2021/08/04 11:17:10;;;;;;;5.78;3.45;;;;;;;31.73;24.77;98426.22;5135900;27;20389;-92
2021/08/04 11:20:11;;;;;;;9.98;3.53;;;;;;;31.56;24.29;98407.31;5125802;27;20071;-93
2021/08/04 11:22:49;;;;;;;5.70;3.20;;;;;;;30.80;25.40;98418.91;5132197;28;20126;-93
2021/08/04 11:25:28;;;;;;;;;;;;;;;30.37;25.92;98421.13;5136388;28;20061;-90
2021/08/04 11:28:21;;;;;;;6.50;3.38;;;;;;;30.32;27.44;98415.34;5127165;28;19959;-90
2021/08/04 11:30:52;;;;;;;8.23;3.35;;;;;;;30.37;26.59;98410.16;5069678;28;20040;-92
2021/08/04 11:33:30;;;;;;;8.10;3.15;;;;;;;30.63;25.23;98404.41;5071800;28;20390;-94
2021/08/04 11:36:04;;;;;;;5.87;3.40;;;;;;;30.66;25.30;98403.19;5071260;28;20045;-93
2021/08/04 11:38:42;;;;;;;5.75;3.65;;;;;;;30.40;25.97;98403.47;5076137;28;20056;-92
2021/08/04 11:41:23;;;;;;;;;;;;;;;30.25;25.46;98420.63;5070515;28;20048;-93
2021/08/04 11:43:58;;;;;;;6.30;3.53;;;;;;;30.28;25.09;98394.78;5068176;28;19920;-92
2021/08/04 11:46:28;;;;;;;5.50;3.40;;;;;;;30.47;25.05;98388.88;5067631;28;20049;-91
2021/08/04 11:48:54;;;;;;;7.55;3.60;;;;;;;30.98;25.78;98382.09;5064860;28;20059;-93
2021/08/04 11:51:30;;;;;;;7.15;3.53;;;;;;;31.46;24.85;98389.16;5069787;28;20108;-95